Time;durP1;ratioP1;P1;durP2;ratioP2;P2;SDS_P1;SDS_P2;PMS_P1;PMS_P2;Temp;Humidity;BMP_temperature;BMP_pressure;BME280_temperature;BME280_humidity;BME280_pressure;Samples;Min_cycle;Max_cycle;Signal;HPM_P1;HPM_P2
2023/04/27 00:00:44;;;;;;;3.63;2.10;;;17.20;55.10;;;;;;4999534;28;20197;-51
2023/04/27 00:03:15;;;;;;;5.10;2.20;;;17.20;55.10;;;;;;5022878;28;20679;-56
2023/04/27 00:05:46;;;;;;;3.22;2.00;;;17.20;55.10;;;;;;5033770;28;20196;-52
2023/04/27 00:08:16;;;;;;;4.10;1.77;;;17.20;55.10;;;;;;5034088;28;20633;-53
2023/04/27 00:10:49;;;;;;;2.85;1.70;;;17.30;55.10;;;;;;5034226;28;20246;-54
2023/04/27 00:13:19;;;;;;;2.35;1.50;;;17.30;55.10;;;;;;5034331;28;20342;-57
2023/04/27 00:15:50;;;;;;;2.90;1.95;;;17.30;55.10;;;;;;5034139;28;20196;-55
2023/04/27 00:18:20;;;;;;;2.88;1.75;;;17.30;55.10;;;;;;5033681;28;20262;-54
2023/04/27 00:20:51;;;;;;;3.67;1.90;;;17.40;55.20;;;;;;5033200;28;20196;-55
2023/04/27 00:23:22;;;;;;;4.07;1.83;;;17.40;55.20;;;;;;5033347;28;20203;-56
2023/04/27 00:25:54;;;;;;;2.80;1.88;;;17.40;55.10;;;;;;5033392;28;20196;-56
2023/04/27 00:28:25;;;;;;;4.07;2.20;;;17.40;55.10;;;;;;5013458;28;20228;-55
2023/04/27 00:30:56;;;;;;;3.83;1.77;;;17.40;55.70;;;;;;5013802;28;20204;-53
2023/04/27 00:33:26;;;;;;;2.38;2.00;;;17.50;55.10;;;;;;5029381;28;20204;-54
2023/04/27 00:36:00;;;;;;;1.65;1.40;;;17.50;55.10;;;;;;5023054;28;20193;-54
2023/04/27 00:38:31;;;;;;;4.25;2.28;;;17.50;55.10;;;;;;5010831;28;20208;-55
2023/04/27 00:41:08;;;;;;;2.58;1.80;;;17.60;55.70;;;;;;5012818;28;20201;-58
2023/04/27 00:43:45;;;;;;;2.58;1.70;;;17.60;55.20;;;;;;5010568;28;20208;-57
2023/04/27 00:46:18;;;;;;;3.30;2.00;;;17.60;55.20;;;;;;5013368;28;20207;-57
2023/04/27 00:48:49;;;;;;;3.70;2.00;;;17.70;55.20;;;;;;5011967;28;20724;-55
2023/04/27 00:51:19;;;;;;;3.33;1.90;;;17.60;55.10;;;;;;5012945;28;20197;-53
2023/04/27 00:53:50;;;;;;;2.97;1.77;;;17.70;55.80;;;;;;5010973;28;20201;-51
2023/04/27 00:56:23;;;;;;;3.45;2.10;;;17.80;55.30;;;;;;5012002;28;20664;-55
2023/04/27 00:58:53;;;;;;;3.38;1.90;;;17.80;55.30;;;;;;5011114;28;20220;-54
2023/04/27 01:01:24;;;;;;;2.88;1.60;;;17.80;55.30;;;;;;5012646;28;20263;-54
2023/04/27 01:03:56;;;;;;;2.90;1.80;;;17.90;55.30;;;;;;5007580;28;20193;-55
2023/04/27 01:06:27;;;;;;;2.13;1.60;;;17.90;55.30;;;;;;5011746;28;20815;-53
2023/04/27 01:08:57;;;;;;;2.55;1.75;;;17.90;55.30;;;;;;5012084;28;20249;-53
2023/04/27 01:11:30;;;;;;;2.80;1.80;;;18.00;55.30;;;;;;5010701;28;20212;-55
2023/04/27 01:14:04;;;;;;;2.38;1.60;;;18.00;55.30;;;;;;5012706;28;20201;-55
2023/04/27 01:16:36;;;;;;;2.42;1.55;;;18.00;55.30;;;;;;5010899;28;20200;-57
2023/04/27 01:19:06;;;;;;;2.35;1.60;;;18.00;55.20;;;;;;5011449;28;20271;-53
2023/04/27 01:21:37;;;;;;;3.08;2.17;;;18.10;55.20;;;;;;5017284;28;20235;-52
2023/04/27 01:24:11;;;;;;;3.42;1.80;;;18.10;55.80;;;;;;5017500;28;20251;-55
2023/04/27 01:26:42;;;;;;;2.90;1.80;;;18.10;55.20;;;;;;5013166;28;20676;-52
2023/04/27 01:29:12;;;;;;;3.05;1.77;;;18.20;55.20;;;;;;5017326;28;20239;-53
2023/04/27 01:31:43;;;;;;;2.88;1.85;;;18.20;55.20;;;;;;5014304;28;20212;-54
2023/04/27 01:34:14;;;;;;;3.67;1.90;;;18.20;55.20;;;;;;5014999;28;20201;-54
2023/04/27 01:36:44;;;;;;;2.72;1.85;;;18.30;55.30;;;;;;5012175;28;20251;-51
2023/04/27 01:39:17;;;;;;;3.22;1.88;;;18.30;55.30;;;;;;5023594;28;20197;-52
2023/04/27 01:41:47;;;;;;;4.38;1.65;;;18.30;55.30;;;;;;5031107;28;20320;-54
2023/04/27 01:44:19;;;;;;;2.13;1.80;;;18.40;55.30;;;;;;5023581;28;20435;-54
2023/04/27 01:46:50;;;;;;;2.00;1.52;;;18.40;55.30;;;;;;5031863;28;20203;-55
2023/04/27 01:49:21;;;;;;;2.63;1.63;;;18.40;55.30;;;;;;5019340;28;20204;-51
2023/04/27 01:51:51;;;;;;;2.35;1.60;;;18.40;55.20;;;;;;5031103;28;20195;-51
2023/04/27 01:54:24;;;;;;;2.50;1.92;;;18.50;55.20;;;;;;5016125;28;20685;-53
2023/04/27 01:56:54;;;;;;;3.08;1.80;;;18.50;55.20;;;;;;5017884;28;20197;-53
2023/04/27 01:59:25;;;;;;;3.33;2.15;;;18.50;55.10;;;;;;5011774;28;20201;-53
2023/04/27 02:01:56;;;;;;;2.65;1.80;;;18.60;55.10;;;;;;5013474;28;20729;-55
2023/04/27 02:04:26;;;;;;;2.88;1.98;;;18.60;55.00;;;;;;5016359;28;20259;-54
2023/04/27 02:06:57;;;;;;;3.20;1.85;;;18.60;55.00;;;;;;5011941;28;20656;-54
2023/04/27 02:09:30;;;;;;;2.10;1.67;;;18.70;55.00;;;;;;5011567;28;20676;-55
2023/04/27 02:12:01;;;;;;;2.10;1.90;;;18.70;54.90;;;;;;5011501;28;20209;-53
2023/04/27 02:14:34;;;;;;;2.05;1.75;;;18.80;54.90;;;;;;5011887;28;20200;-52
2023/04/27 02:17:05;;;;;;;2.97;1.90;;;18.80;54.90;;;;;;5011911;28;20197;-49
2023/04/27 02:19:36;;;;;;;3.15;1.67;;;18.80;54.80;;;;;;5011576;28;20240;-56
2023/04/27 02:22:07;;;;;;;3.50;1.85;;;18.90;54.80;;;;;;5011463;28;20639;-52
2023/04/27 02:24:40;;;;;;;2.15;1.58;;;18.90;54.80;;;;;;5011780;28;20193;-55
2023/04/27 02:27:11;;;;;;;3.13;1.45;;;18.90;54.80;;;;;;5011569;28;20235;-53
2023/04/27 02:29:42;;;;;;;1.90;1.63;;;18.90;54.80;;;;;;5010097;28;20197;-51
2023/04/27 02:32:12;;;;;;;2.58;1.75;;;18.90;54.80;;;;;;5017165;28;20208;-52
2023/04/27 02:34:43;;;;;;;2.53;1.83;;;19.00;54.80;;;;;;5031622;28;20200;-52
2023/04/27 02:37:14;;;;;;;2.03;1.80;;;19.00;54.80;;;;;;5031502;28;20587;-55
2023/04/27 02:39:46;;;;;;;2.92;1.80;;;19.10;54.90;;;;;;5031432;28;20693;-51
2023/04/27 02:42:17;;;;;;;2.25;1.75;;;19.10;54.90;;;;;;5030804;28;20752;-55
2023/04/27 02:44:48;;;;;;;2.30;1.77;;;19.10;54.80;;;;;;5030895;28;20665;-54
2023/04/27 02:47:18;;;;;;;2.72;2.10;;;19.20;54.90;;;;;;5036109;22;20238;-59
2023/04/27 02:49:49;;;;;;;3.55;1.73;;;19.20;54.80;;;;;;4991834;28;20201;-60
2023/04/27 02:52:20;;;;;;;2.97;1.70;;;19.20;54.80;;;;;;4991912;28;20209;-60
2023/04/27 02:54:52;;;;;;;2.05;1.75;;;19.30;54.90;;;;;;4991712;28;20205;-60
2023/04/27 02:57:23;;;;;;;3.20;1.60;;;19.40;55.00;;;;;;4987436;28;20288;-60
2023/04/27 02:59:53;;;;;;;2.28;1.77;;;19.30;54.90;;;;;;4972542;28;20194;-60
2023/04/27 03:02:24;;;;;;;2.40;1.67;;;19.40;54.90;;;;;;4979628;28;20228;-59
2023/04/27 03:04:58;;;;;;;2.25;1.88;;;19.40;55.00;;;;;;4991795;28;20197;-59
2023/04/27 03:07:30;;;;;;;1.98;1.67;;;19.50;54.90;;;;;;4991244;28;20884;-59
2023/04/27 03:10:02;;;;;;;1.90;1.33;;;19.50;54.90;;;;;;4991343;28;20572;-60
2023/04/27 03:12:33;;;;;;;2.00;1.80;;;19.50;54.80;;;;;;4991417;28;20625;-60
2023/04/27 03:15:04;;;;;;;2.70;1.63;;;19.60;54.80;;;;;;4995722;28;20198;-60
2023/04/27 03:17:34;;;;;;;2.10;1.65;;;19.60;54.70;;;;;;4995691;28;20668;-60
2023/04/27 03:20:07;;;;;;;2.83;2.00;;;19.70;54.70;;;;;;4995868;28;20213;-60
2023/04/27 03:22:38;;;;;;;3.13;1.80;;;19.70;54.60;;;;;;4995682;28;20228;-60
2023/04/27 03:25:11;;;;;;;2.35;1.73;;;19.80;54.60;;;;;;4995654;28;20650;-60
2023/04/27 03:27:42;;;;;;;2.03;1.80;;;19.80;54.50;;;;;;4995551;28;20248;-60
2023/04/27 03:30:13;;;;;;;2.60;1.83;;;19.80;54.80;;;;;;4995385;28;20198;-60
2023/04/27 03:32:44;;;;;;;2.85;1.77;;;19.90;54.50;;;;;;4992421;28;20642;-60
2023/04/27 03:35:15;;;;;;;3.15;2.03;;;19.90;54.50;;;;;;4994833;28;20287;-60
2023/04/27 03:37:45;;;;;;;2.80;1.90;;;19.90;54.50;;;;;;4994477;28;20281;-60
2023/04/27 03:40:18;;;;;;;2.55;1.63;;;20.00;54.40;;;;;;4994229;28;20212;-60
2023/04/27 03:42:49;;;;;;;2.42;1.77;;;20.00;54.40;;;;;;4993948;28;20237;-59
2023/04/27 03:45:21;;;;;;;2.33;1.98;;;20.00;54.40;;;;;;4994836;28;20340;-59
2023/04/27 04:03:23;;;;;;;2.22;1.58;;;20.30;53.90;;;;;;5008539;28;20658;-53
2023/04/27 04:05:54;;;;;;;2.15;1.60;;;20.30;53.80;;;;;;5012996;28;20205;-56
2023/04/27 04:08:25;;;;;;;2.65;1.83;;;20.40;53.80;;;;;;5011870;28;20279;-55
2023/04/27 04:10:56;;;;;;;2.80;1.98;;;20.40;53.70;;;;;;5013526;28;20205;-55
2023/04/27 04:13:26;;;;;;;2.78;1.70;;;20.40;53.70;;;;;;4997641;28;20216;-54
2023/04/27 04:16:04;;;;;;;2.42;1.77;;;20.40;53.60;;;;;;5014187;28;20231;-55
2023/04/27 04:18:37;;;;;;;2.92;2.15;;;20.40;53.50;;;;;;4992923;28;20217;-56
2023/04/27 04:21:08;;;;;;;3.33;2.00;;;20.50;53.60;;;;;;4997009;28;20197;-56
2023/04/27 04:23:39;;;;;;;3.47;1.70;;;20.50;53.50;;;;;;4992484;28;20641;-56
2023/04/27 04:26:10;;;;;;;2.45;1.85;;;20.50;53.50;;;;;;5009103;28;20240;-55
2023/04/27 04:28:41;;;;;;;2.17;1.55;;;20.60;53.40;;;;;;4993920;28;20221;-55
2023/04/27 04:31:12;;;;;;;2.80;2.00;;;20.60;53.40;;;;;;5003851;28;20657;-55
2023/04/27 04:33:44;;;;;;;1.98;1.77;;;20.60;53.30;;;;;;5010819;28;20201;-54
2023/04/27 04:36:15;;;;;;;3.30;2.00;;;20.60;53.30;;;;;;5011250;28;20832;-55
2023/04/27 04:38:46;;;;;;;2.53;1.90;;;20.60;53.20;;;;;;4976424;28;20225;-56
2023/04/27 04:41:18;;;;;;;2.88;1.60;;;20.70;53.30;;;;;;4977892;28;20204;-54
2023/04/27 04:43:48;;;;;;;2.83;1.90;;;20.70;53.20;;;;;;5012570;28;20229;-55
2023/04/27 04:46:19;;;;;;;2.08;1.60;;;20.70;53.10;;;;;;5012543;28;20280;-55
2023/04/27 04:48:52;;;;;;;3.63;1.77;;;20.70;53.10;;;;;;5011991;28;20217;-55
2023/04/27 04:51:23;;;;;;;2.88;2.08;;;20.70;53.10;;;;;;5008447;28;20206;-55
2023/04/27 04:53:53;;;;;;;3.35;2.08;;;20.70;53.10;;;;;;5008153;28;20211;-54
2023/04/27 04:56:24;;;;;;;3.63;2.47;;;20.80;53.10;;;;;;5011649;28;20204;-56
2023/04/27 04:58:54;;;;;;;3.72;2.42;;;20.80;53.00;;;;;;4991842;28;20312;-55
2023/04/27 05:01:25;;;;;;;2.75;2.30;;;20.80;53.00;;;;;;5012324;28;20213;-55
2023/04/27 05:03:58;;;;;;;3.17;2.47;;;20.80;53.00;;;;;;5010792;28;20228;-56
2023/04/27 05:06:29;;;;;;;3.03;2.35;;;20.80;53.00;;;;;;5012693;28;20207;-54
2023/04/27 05:09:00;;;;;;;2.55;2.33;;;20.80;53.00;;;;;;4974082;28;20214;-57
2023/04/27 05:11:30;;;;;;;2.95;2.42;;;20.80;52.90;;;;;;4986767;28;20194;-55
2023/04/27 05:14:01;;;;;;;2.92;2.53;;;20.80;53.00;;;;;;4973366;28;20201;-57
2023/04/27 05:16:31;;;;;;;3.08;2.13;;;20.80;53.00;;;;;;5005470;28;20201;-53
2023/04/27 05:19:04;;;;;;;3.58;2.88;;;20.80;53.00;;;;;;4974128;28;20744;-56
2023/04/27 05:21:35;;;;;;;3.42;2.65;;;20.80;53.00;;;;;;4996069;28;20204;-56
2023/04/27 05:24:06;;;;;;;2.63;2.33;;;20.80;52.90;;;;;;4972772;28;20567;-54
2023/04/27 05:26:36;;;;;;;3.28;2.75;;;20.80;52.90;;;;;;4986179;28;20233;-54
2023/04/27 05:29:07;;;;;;;3.15;2.50;;;20.80;52.80;;;;;;4993055;28;20214;-54
2023/04/27 05:31:38;;;;;;;2.45;2.25;;;20.80;52.70;;;;;;4993459;28;20208;-55
2023/04/27 05:34:10;;;;;;;3.00;2.50;;;20.80;52.70;;;;;;4973465;28;20203;-55
2023/04/27 05:36:41;;;;;;;3.13;2.42;;;20.80;52.70;;;;;;4973645;28;20280;-54
2023/04/27 05:39:12;;;;;;;3.58;2.30;;;20.80;52.70;;;;;;5009939;28;20225;-51
2023/04/27 05:41:42;;;;;;;2.95;2.42;;;20.80;52.70;;;;;;5011385;28;20233;-55
2023/04/27 05:44:13;;;;;;;3.13;2.30;;;20.80;52.70;;;;;;5003168;28;20232;-56
2023/04/27 05:46:44;;;;;;;2.75;2.42;;;20.80;52.70;;;;;;5011510;28;20201;-56
2023/04/27 05:49:16;;;;;;;2.70;2.17;;;20.80;52.70;;;;;;4983592;28;20618;-56
2023/04/27 05:51:47;;;;;;;3.05;2.40;;;20.80;52.70;;;;;;4991870;28;20201;-55
2023/04/27 05:54:18;;;;;;;2.60;2.10;;;20.70;52.60;;;;;;4992447;28;20209;-53
2023/04/27 05:56:49;;;;;;;3.83;2.70;;;20.80;52.50;;;;;;5011049;28;20258;-52
2023/04/27 05:59:20;;;;;;;3.97;2.53;;;20.80;52.50;;;;;;4973659;28;20214;-54
2023/04/27 06:01:51;;;;;;;3.08;2.42;;;20.70;52.30;;;;;;4994605;28;20286;-55
2023/04/27 06:04:24;;;;;;;3.60;2.42;;;20.70;52.30;;;;;;4972958;28;20261;-55
2023/04/27 06:06:55;;;;;;;3.80;2.30;;;20.70;52.20;;;;;;4988580;28;20587;-56
2023/04/27 06:09:25;;;;;;;2.58;2.38;;;20.70;52.20;;;;;;4972662;28;20218;-56
2023/04/27 06:11:57;;;;;;;2.97;2.35;;;20.70;52.20;;;;;;4998830;28;20212;-54
2023/04/27 06:14:27;;;;;;;3.53;2.20;;;20.70;52.20;;;;;;5009660;28;20210;-57
2023/04/27 06:16:58;;;;;;;3.05;2.50;;;20.70;52.10;;;;;;5009481;28;20212;-56
2023/04/27 06:19:31;;;;;;;2.67;2.00;;;20.60;52.00;;;;;;4991651;28;20202;-56
2023/04/27 06:22:02;;;;;;;3.17;2.35;;;20.60;52.00;;;;;;4994233;28;20209;-57
2023/04/27 06:24:35;;;;;;;2.90;2.22;;;20.60;52.00;;;;;;4972497;28;20699;-56
2023/04/27 06:27:05;;;;;;;3.78;2.97;;;20.60;52.00;;;;;;4988526;28;20205;-56
2023/04/27 06:29:36;;;;;;;3.20;2.75;;;20.60;52.10;;;;;;4991465;28;20427;-53
2023/04/27 06:32:07;;;;;;;3.30;2.55;;;20.60;52.00;;;;;;4996193;28;20201;-56
2023/04/27 06:34:39;;;;;;;3.22;2.92;;;20.50;52.00;;;;;;5000654;28;20577;-57
2023/04/27 06:37:10;;;;;;;3.70;3.28;;;20.50;52.00;;;;;;4996590;28;20194;-54
2023/04/27 06:39:41;;;;;;;3.65;2.88;;;20.50;52.00;;;;;;4990229;28;20203;-54
2023/04/27 06:42:11;;;;;;;5.15;3.50;;;20.50;52.00;;;;;;4980633;28;20190;-56
2023/04/27 06:44:42;;;;;;;4.82;3.33;;;20.40;52.00;;;;;;4981967;28;20225;-56
2023/04/27 06:47:13;;;;;;;3.30;3.00;;;20.40;52.00;;;;;;4981036;28;20196;-58
2023/04/27 06:49:45;;;;;;;4.60;3.33;;;20.40;52.00;;;;;;4979485;28;20194;-56
2023/04/27 06:52:16;;;;;;;4.40;3.47;;;20.40;52.00;;;;;;4980867;28;20190;-55
2023/04/27 06:54:46;;;;;;;4.28;3.33;;;20.40;52.00;;;;;;4986423;28;20236;-56
2023/04/27 06:57:17;;;;;;;4.90;3.10;;;20.30;51.90;;;;;;5007150;28;20209;-57
2023/04/27 06:59:48;;;;;;;4.95;3.28;;;20.30;51.90;;;;;;4990662;28;20658;-57
2023/04/27 07:02:18;;;;;;;4.72;3.60;;;20.30;51.90;;;;;;4991632;28;20209;-57
2023/04/27 07:04:51;;;;;;;4.63;3.20;;;20.30;51.90;;;;;;4981939;28;20236;-57
2023/04/27 07:07:22;;;;;;;3.17;2.88;;;20.30;52.00;;;;;;4989993;28;20201;-58
2023/04/27 07:09:52;;;;;;;3.95;3.30;;;20.20;51.90;;;;;;4991728;28;20197;-58
2023/04/27 07:12:23;;;;;;;4.78;3.10;;;20.20;51.90;;;;;;4992237;28;20201;-58
2023/04/27 07:14:53;;;;;;;4.40;3.28;;;20.20;51.90;;;;;;4971412;28;20198;-55
2023/04/27 07:17:24;;;;;;;3.25;2.92;;;20.20;51.90;;;;;;4986253;28;21332;-57
2023/04/27 07:19:57;;;;;;;4.85;3.60;;;20.20;51.90;;;;;;5008263;28;20234;-55
2023/04/27 07:22:27;;;;;;;5.25;3.33;;;20.10;51.80;;;;;;5009680;28;20204;-57
2023/04/27 07:24:58;;;;;;;2.95;2.65;;;20.10;51.90;;;;;;4999717;28;20236;-58
2023/04/27 07:27:30;;;;;;;4.00;3.35;;;20.10;51.80;;;;;;4989882;28;20221;-57
2023/04/27 07:33:17;;;;;;;5.72;3.40;;;20.10;51.90;;;;;;4961169;28;20299;-58
2023/04/27 07:39:05;;;;;;;4.20;3.10;;;20.00;51.80;;;;;;4917491;29;20835;-58
2023/04/27 07:41:36;;;;;;;4.13;3.28;;;20.00;51.80;;;;;;4937272;29;20188;-58
2023/04/27 07:44:07;;;;;;;3.30;3.00;;;20.00;51.80;;;;;;4938379;29;20230;-57
2023/04/27 07:46:37;;;;;;;4.07;3.30;;;19.90;51.80;;;;;;4949407;29;20191;-58
2023/04/27 07:49:08;;;;;;;3.67;3.03;;;19.90;51.90;;;;;;5047578;22;20228;-59
2023/04/27 07:51:42;;;;;;;4.32;3.10;;;19.90;51.90;;;;;;5010088;28;20193;-59
2023/04/27 07:57:39;;;;;;;3.78;3.20;;;19.80;51.90;;;;;;5008533;28;20209;-59
2023/04/27 08:00:12;;;;;;;4.72;3.35;;;19.80;51.80;;;;;;5011007;28;20189;-60
2023/04/27 08:02:42;;;;;;;4.55;3.38;;;19.80;51.80;;;;;;5024297;28;20196;-60
2023/04/27 08:05:13;;;;;;;3.88;2.80;;;19.80;51.80;;;;;;5033999;28;20228;-60
2023/04/27 08:07:45;;;;;;;4.65;3.10;;;19.80;51.80;;;;;;5033460;28;20220;-60
2023/04/27 08:10:16;;;;;;;4.40;3.40;;;19.70;51.80;;;;;;5033616;28;20199;-60
2023/04/27 08:12:47;;;;;;;3.92;3.17;;;19.70;51.80;;;;;;5024321;28;20240;-60
2023/04/27 08:15:18;;;;;;;5.40;3.40;;;19.70;51.80;;;;;;5013694;28;20197;-59
2023/04/27 08:17:48;;;;;;;4.18;3.45;;;19.70;51.90;;;;;;5014285;28;20271;-59
2023/04/27 08:20:19;;;;;;;3.78;3.13;;;19.60;51.90;;;;;;5013283;28;20207;-59
2023/04/27 08:22:54;;;;;;;4.07;3.15;;;19.60;51.90;;;;;;4999356;28;20197;-59
2023/04/27 08:25:25;;;;;;;3.70;2.90;;;19.60;51.90;;;;;;5007543;28;20224;-59
2023/04/27 08:27:55;;;;;;;5.05;3.03;;;19.60;51.90;;;;;;5004919;28;20757;-59
2023/04/27 08:30:26;;;;;;;5.13;3.17;;;19.60;51.90;;;;;;5013729;28;20208;-59
2023/04/27 08:32:56;;;;;;;4.10;3.15;;;19.60;51.90;;;;;;5008188;28;20206;-60
2023/04/27 08:35:27;;;;;;;3.80;3.10;;;19.50;51.80;;;;;;4997501;28;20708;-59
2023/04/27 08:38:00;;;;;;;4.55;3.05;;;19.50;51.80;;;;;;5012853;28;20219;-59
2023/04/27 08:40:31;;;;;;;3.88;3.03;;;19.50;51.80;;;;;;5013583;28;20208;-59
2023/04/27 08:43:02;;;;;;;4.07;2.95;;;19.50;51.90;;;;;;5009906;28;20207;-60
2023/04/27 08:45:32;;;;;;;4.13;3.10;;;19.50;51.80;;;;;;5013661;28;20256;-60
2023/04/27 08:48:03;;;;;;;3.80;2.70;;;19.40;51.80;;;;;;5013764;28;20220;-60
2023/04/27 08:50:34;;;;;;;3.97;3.28;;;19.40;51.80;;;;;;5013061;28;20196;-60
2023/04/27 08:53:06;;;;;;;3.70;3.00;;;19.40;51.80;;;;;;5013076;28;20652;-60
2023/04/27 08:55:37;;;;;;;3.38;2.80;;;19.40;51.90;;;;;;5013496;28;20201;-60
2023/04/27 08:58:08;;;;;;;4.47;2.58;;;19.30;51.90;;;;;;5013008;28;20223;-60
2023/04/27 09:00:42;;;;;;;4.45;3.10;;;19.30;51.90;;;;;;5012754;28;20196;-60
2023/04/27 09:03:23;;;;;;;4.07;3.28;;;19.30;51.90;;;;;;5027166;28;20628;-60
2023/04/27 09:05:55;;;;;;;3.65;3.00;;;19.30;51.90;;;;;;5032701;28;20227;-60
2023/04/27 09:08:27;;;;;;;4.70;2.92;;;19.20;51.80;;;;;;5028696;28;20209;-60
2023/04/27 09:10:58;;;;;;;3.28;2.80;;;19.20;51.80;;;;;;5012490;28;20595;-60
2023/04/27 09:13:37;;;;;;;3.83;2.75;;;19.20;51.90;;;;;;5012672;28;20640;-60
2023/04/27 09:16:08;;;;;;;3.58;2.80;;;19.20;51.90;;;;;;5013023;28;20197;-60
2023/04/27 09:18:43;;;;;;;4.13;3.05;;;19.20;51.90;;;;;;5012908;28;20221;-60
2023/04/27 09:21:23;;;;;;;3.25;2.90;;;19.20;51.90;;;;;;5012596;28;20192;-60
2023/04/27 09:23:56;;;;;;;4.50;3.15;;;19.20;51.90;;;;;;5012624;28;20733;-60
2023/04/27 09:26:27;;;;;;;3.83;2.60;;;19.10;51.90;;;;;;5011934;28;20201;-60
2023/04/27 09:28:58;;;;;;;3.60;2.72;;;19.10;51.90;;;;;;5012269;28;20229;-60
2023/04/27 09:31:34;;;;;;;3.78;3.00;;;19.00;51.80;;;;;;5012260;28;20560;-60
2023/04/27 09:34:05;;;;;;;3.72;2.92;;;19.00;51.80;;;;;;4995839;28;20577;-60
2023/04/27 09:36:36;;;;;;;3.42;3.10;;;19.00;51.80;;;;;;5009838;28;20192;-60
2023/04/27 09:39:09;;;;;;;4.07;2.90;;;19.00;52.00;;;;;;5011305;28;20224;-60
2023/04/27 09:41:40;;;;;;;4.07;3.28;;;19.00;52.00;;;;;;5011908;28;20192;-60
2023/04/27 09:44:11;;;;;;;3.85;2.60;;;19.00;52.00;;;;;;5012529;28;20231;-60
2023/04/27 09:46:44;;;;;;;3.58;2.50;;;19.00;52.00;;;;;;5018135;28;20204;-60
2023/04/27 09:49:16;;;;;;;4.68;2.80;;;19.00;52.10;;;;;;5012637;22;20229;-56
2023/04/27 09:51:46;;;;;;;3.17;2.60;;;19.00;52.00;;;;;;4992758;28;20229;-56
2023/04/27 09:54:20;;;;;;;3.90;3.05;;;18.90;52.00;;;;;;4992968;28;20272;-56
2023/04/27 09:57:07;;;;;;;4.55;2.90;;;18.90;52.00;;;;;;4992369;28;20252;-58
2023/04/27 09:59:59;;;;;;;3.22;2.90;;;18.90;52.10;;;;;;4974048;28;20232;-57
2023/04/27 10:02:38;;;;;;;4.20;2.67;;;18.90;52.10;;;;;;4980663;28;20205;-57
2023/04/27 10:05:28;;;;;;;3.47;2.53;;;18.80;52.00;;;;;;4992258;28;20251;-56
2023/04/27 10:07:59;;;;;;;3.22;2.60;;;18.80;52.00;;;;;;4992253;28;20225;-57
2023/04/27 10:10:32;;;;;;;3.55;2.60;;;18.80;52.10;;;;;;4975647;28;20198;-58
2023/04/27 10:13:06;;;;;;;3.03;2.38;;;18.80;52.10;;;;;;4970876;28;20217;-57
2023/04/27 10:15:42;;;;;;;3.83;3.00;;;18.70;52.10;;;;;;4972010;28;20194;-56
2023/04/27 10:18:13;;;;;;;3.85;3.00;;;18.70;52.10;;;;;;4971002;28;20236;-57
2023/04/27 10:20:44;;;;;;;4.45;2.80;;;18.70;52.10;;;;;;4972696;28;20193;-58
2023/04/27 10:23:26;;;;;;;3.20;2.90;;;18.70;52.10;;;;;;4966874;28;20620;-57
2023/04/27 10:26:08;;;;;;;3.92;2.85;;;18.60;52.10;;;;;;4972307;28;20712;-57
2023/04/27 10:28:42;;;;;;;3.78;2.63;;;18.60;52.10;;;;;;4970468;28;20230;-56
2023/04/27 10:31:13;;;;;;;3.53;3.08;;;18.60;52.10;;;;;;4972176;28;20233;-55
2023/04/27 10:33:46;;;;;;;3.58;3.08;;;18.60;52.20;;;;;;4989688;28;20668;-55
2023/04/27 10:36:17;;;;;;;3.08;2.58;;;18.60;52.10;;;;;;4973381;28;20201;-58
2023/04/27 10:38:58;;;;;;;4.05;2.65;;;18.50;52.10;;;;;;4972552;28;20720;-56
2023/04/27 10:41:36;;;;;;;3.80;2.45;;;18.50;52.10;;;;;;4969780;28;20565;-57
2023/04/27 10:44:20;;;;;;;2.78;2.30;;;18.50;52.70;;;;;;4971447;28;20850;-56
2023/04/27 10:46:55;;;;;;;3.95;2.55;;;18.50;52.10;;;;;;4971872;28;20209;-58
2023/04/27 10:49:28;;;;;;;2.97;2.58;;;18.50;52.10;;;;;;4972442;28;20582;-56
2023/04/27 10:52:03;;;;;;;4.25;3.00;;;18.40;52.10;;;;;;4967180;28;20202;-57
2023/04/27 10:54:35;;;;;;;3.22;2.50;;;18.40;52.20;;;;;;4954870;28;20685;-56
2023/04/27 10:57:12;;;;;;;4.60;2.42;;;18.40;52.20;;;;;;4970745;28;20217;-56
2023/04/27 10:59:51;;;;;;;3.05;2.60;;;18.40;52.20;;;;;;4971573;28;20708;-56
2023/04/27 11:02:28;;;;;;;4.43;2.45;;;18.40;52.20;;;;;;4971823;28;20198;-56
2023/04/27 11:05:06;;;;;;;3.50;2.75;;;18.30;52.20;;;;;;4971903;28;20582;-57
2023/04/27 11:07:36;;;;;;;3.00;2.38;;;18.30;52.20;;;;;;4970097;28;20198;-56
2023/04/27 11:10:09;;;;;;;3.58;2.70;;;18.30;52.20;;;;;;4971823;28;20197;-58
2023/04/27 11:12:42;;;;;;;3.42;2.70;;;18.30;52.20;;;;;;4973393;28;20194;-57
2023/04/27 11:15:13;;;;;;;3.00;2.45;;;18.30;52.20;;;;;;4970754;28;20201;-57
2023/04/27 11:17:44;;;;;;;4.07;2.63;;;18.30;52.20;;;;;;4990559;28;20279;-56
2023/04/27 11:20:15;;;;;;;3.38;2.33;;;18.30;52.30;;;;;;4975948;28;20195;-56
2023/04/27 11:22:49;;;;;;;3.17;2.65;;;18.20;52.20;;;;;;4972080;28;20201;-57
2023/04/27 11:25:28;;;;;;;3.00;2.25;;;18.20;52.20;;;;;;4969272;28;20229;-57
2023/04/27 11:28:01;;;;;;;3.95;2.20;;;18.20;52.80;;;;;;4970299;28;20213;-57
2023/04/27 11:30:32;;;;;;;3.08;2.50;;;18.20;52.20;;;;;;4970290;28;20654;-58
2023/04/27 11:33:10;;;;;;;3.83;2.47;;;18.20;52.20;;;;;;4985329;28;20236;-58
2023/04/27 11:35:41;;;;;;;2.70;2.10;;;18.20;52.20;;;;;;4977079;28;20243;-58
2023/04/27 11:38:19;;;;;;;3.08;2.38;;;18.20;52.20;;;;;;4975519;28;20222;-58
2023/04/27 11:41:00;;;;;;;2.97;2.53;;;18.20;52.20;;;;;;4975140;28;20193;-58
2023/04/27 11:43:33;;;;;;;2.75;2.28;;;18.10;52.20;;;;;;4974997;28;20210;-57
2023/04/27 11:46:09;;;;;;;2.70;2.40;;;18.10;52.20;;;;;;4974649;28;20226;-58
2023/04/27 11:48:40;;;;;;;3.00;2.55;;;18.10;52.20;;;;;;4975228;28;20280;-58
2023/04/27 11:51:13;;;;;;;2.97;2.25;;;18.10;52.20;;;;;;4975502;28;20607;-58
2023/04/27 11:53:50;;;;;;;3.00;2.10;;;18.10;52.20;;;;;;4973795;28;20735;-57
2023/04/27 11:56:20;;;;;;;3.25;2.15;;;18.10;52.20;;;;;;4974284;28;20200;-58
2023/04/27 11:58:53;;;;;;;2.85;2.25;;;18.00;52.70;;;;;;4973158;28;20234;-58
2023/04/27 12:01:23;;;;;;;2.85;2.40;;;18.00;52.20;;;;;;4974983;28;20206;-57
2023/04/27 12:03:55;;;;;;;3.17;2.50;;;18.00;52.10;;;;;;4988459;28;20202;-58
2023/04/27 12:06:28;;;;;;;4.00;2.60;;;18.00;52.10;;;;;;4975041;28;20630;-58
2023/04/27 12:08:59;;;;;;;2.75;2.30;;;17.90;52.20;;;;;;4974386;28;20233;-56
2023/04/27 12:11:30;;;;;;;3.03;2.35;;;18.00;52.10;;;;;;4974634;28;20198;-58
2023/04/27 12:14:03;;;;;;;3.47;2.10;;;17.90;52.10;;;;;;4975274;28;20657;-57
2023/04/27 12:16:34;;;;;;;3.25;2.70;;;17.90;52.10;;;;;;4975473;28;20202;-57
2023/04/27 12:19:05;;;;;;;3.83;2.22;;;17.90;52.10;;;;;;4974829;28;20226;-58
2023/04/27 12:21:35;;;;;;;2.80;2.00;;;17.90;52.10;;;;;;4975239;28;20198;-56
2023/04/27 12:24:06;;;;;;;2.22;2.03;;;17.90;52.20;;;;;;4971889;28;20194;-59
2023/04/27 12:26:37;;;;;;;2.50;2.20;;;17.80;52.10;;;;;;4974851;28;20234;-57
2023/04/27 12:29:09;;;;;;;3.03;2.13;;;17.80;52.20;;;;;;4974674;28;20219;-55
2023/04/27 12:31:40;;;;;;;3.15;2.08;;;17.80;52.10;;;;;;4975895;28;20198;-58
2023/04/27 12:34:11;;;;;;;2.50;2.10;;;17.80;52.20;;;;;;4992369;28;20206;-58
2023/04/27 12:36:41;;;;;;;2.15;1.92;;;17.80;52.20;;;;;;4994209;28;20206;-56
2023/04/27 12:39:19;;;;;;;2.85;2.20;;;17.80;52.20;;;;;;4991072;28;20217;-57
2023/04/27 12:41:50;;;;;;;2.42;1.80;;;17.80;52.20;;;;;;4994181;28;20206;-57
2023/04/27 12:44:23;;;;;;;3.33;2.10;;;17.70;52.10;;;;;;4993388;28;20214;-56
2023/04/27 12:46:54;;;;;;;3.28;2.28;;;17.80;52.20;;;;;;4994028;28;20233;-56
2023/04/27 12:49:25;;;;;;;2.78;2.00;;;17.70;52.10;;;;;;4978557;28;20594;-55
2023/04/27 12:51:56;;;;;;;3.30;2.20;;;17.70;52.10;;;;;;4974094;28;20191;-57
2023/04/27 12:54:27;;;;;;;2.65;2.22;;;17.70;52.20;;;;;;4968009;28;20194;-58
2023/04/27 12:57:01;;;;;;;1.98;1.75;;;17.60;52.10;;;;;;4963261;28;20202;-57
2023/04/27 12:59:34;;;;;;;2.53;2.13;;;17.70;52.20;;;;;;4963264;28;20242;-56
2023/04/27 13:02:05;;;;;;;3.65;2.30;;;17.60;52.10;;;;;;4966442;28;20754;-58
2023/04/27 13:04:35;;;;;;;3.28;2.10;;;17.70;52.20;;;;;;4963628;28;20194;-56
2023/04/27 13:07:06;;;;;;;2.20;2.00;;;17.60;52.20;;;;;;4965672;28;20320;-57
2023/04/27 13:09:37;;;;;;;3.17;2.20;;;17.60;52.20;;;;;;4962312;28;20218;-57
2023/04/27 13:12:07;;;;;;;2.47;2.00;;;17.60;52.20;;;;;;4961983;28;20233;-58
2023/04/27 13:14:41;;;;;;;3.45;2.13;;;17.60;52.20;;;;;;4962313;28;20198;-58
2023/04/27 13:17:11;;;;;;;3.13;2.10;;;17.60;52.20;;;;;;4968021;28;20280;-58
2023/04/27 13:19:42;;;;;;;3.25;1.98;;;17.60;52.20;;;;;;4963821;28;20256;-57
2023/04/27 13:22:13;;;;;;;2.17;1.92;;;17.60;52.20;;;;;;4962373;28;20678;-58
2023/04/27 13:24:43;;;;;;;2.45;1.77;;;17.60;52.20;;;;;;4962003;28;20198;-58
2023/04/27 13:27:15;;;;;;;2.38;1.85;;;17.60;52.20;;;;;;4963208;28;20301;-59
2023/04/27 13:29:49;;;;;;;2.05;1.85;;;17.50;52.20;;;;;;4964150;28;20214;-59
2023/04/27 13:32:20;;;;;;;2.75;1.90;;;17.50;52.20;;;;;;4965692;28;20249;-58
2023/04/27 13:34:51;;;;;;;2.38;2.03;;;17.50;52.20;;;;;;4962465;28;20300;-53
2023/04/27 13:37:22;;;;;;;2.92;2.00;;;17.50;52.20;;;;;;4962043;28;20194;-60